createdAt,value
2019-06-20T00:00:46.648Z,19.37
2019-06-20T00:05:49.376Z,14.55
2019-06-20T00:10:52.411Z,19.77
2019-06-20T00:15:55.340Z,19.35
2019-06-20T00:20:58.159Z,16.87
2019-06-20T00:26:00.895Z,23.12
2019-06-20T00:31:03.634Z,18.65
2019-06-20T00:36:06.375Z,19.70
2019-06-20T00:41:09.102Z,20.90
2019-06-20T00:46:11.786Z,18.57
2019-06-20T00:51:14.505Z,20.10
2019-06-20T00:56:17.537Z,23.18
2019-06-20T01:01:20.228Z,21.35
2019-06-20T01:06:22.963Z,20.60
2019-06-20T01:11:25.616Z,22.05
2019-06-20T01:16:28.348Z,31.10
2019-06-20T01:21:31.012Z,34.98
2019-06-20T01:26:33.762Z,39.73
2019-06-20T01:31:36.510Z,33.88
2019-06-20T01:36:39.225Z,36.50
2019-06-20T01:41:41.960Z,38.30
2019-06-20T01:46:44.621Z,41.45
2019-06-20T01:51:47.292Z,40.70
2019-06-20T01:56:49.943Z,41.25
2019-06-20T02:01:52.641Z,41.65
2019-06-20T02:06:56.494Z,42.33
2019-06-20T02:11:59.239Z,44.40
2019-06-20T02:17:01.957Z,41.90
2019-06-20T02:22:04.758Z,43.15
2019-06-20T02:27:07.421Z,46.55
2019-06-20T02:32:10.253Z,47.05
2019-06-20T02:37:12.987Z,47.43
2019-06-20T02:42:15.731Z,48.30
2019-06-20T02:47:18.454Z,46.20
2019-06-20T02:52:21.534Z,46.25
2019-06-20T02:57:24.257Z,45.80
2019-06-20T03:02:26.918Z,49.95
2019-06-20T03:07:29.590Z,46.35
2019-06-20T03:12:32.352Z,47.65
2019-06-20T03:17:35.005Z,52.78
2019-06-20T03:22:38.018Z,50.30
2019-06-20T03:27:40.784Z,48.33
2019-06-20T03:32:43.487Z,46.13
2019-06-20T03:37:46.214Z,49.85
2019-06-20T03:42:48.947Z,52.83
2019-06-20T03:47:51.684Z,49.58
2019-06-20T03:52:54.492Z,47.78
2019-06-20T03:57:58.183Z,44.45
2019-06-20T04:03:01.115Z,54.18
2019-06-20T04:08:04.239Z,55.50
2019-06-20T04:13:06.984Z,48.90
2019-06-20T04:18:09.662Z,53.52
2019-06-20T04:23:12.335Z,49.08
2019-06-20T04:28:15.014Z,43.70
2019-06-20T04:33:17.702Z,46.75
2019-06-20T04:38:20.450Z,46.68
2019-06-20T04:43:23.122Z,45.75
2019-06-20T04:48:25.794Z,41.08
2019-06-20T04:53:28.487Z,45.00
2019-06-20T04:58:31.448Z,43.25
2019-06-20T05:03:34.205Z,42.83
2019-06-20T05:08:36.939Z,44.50
2019-06-20T05:13:39.638Z,46.55
2019-06-20T05:18:42.392Z,48.05
2019-06-20T05:23:45.519Z,52.80
2019-06-20T05:28:48.282Z,44.67
2019-06-20T05:33:50.945Z,45.05
2019-06-20T05:38:53.670Z,41.95
2019-06-20T05:43:56.406Z,50.33
2019-06-20T05:48:59.106Z,49.80
2019-06-20T05:54:02.239Z,47.08
2019-06-20T05:59:05.015Z,40.30
2019-06-20T06:04:07.743Z,35.38
2019-06-20T06:09:10.453Z,39.30
2019-06-20T06:14:13.880Z,36.70
2019-06-20T06:19:16.762Z,20.40
2019-06-20T06:24:19.495Z,19.95
2019-06-20T06:29:22.173Z,23.32
2019-06-20T06:34:24.840Z,24.05
2019-06-20T06:39:27.666Z,31.93
2019-06-20T06:44:31.778Z,26.97
2019-06-20T06:49:34.638Z,34.78
2019-06-20T06:54:37.374Z,33.53
2019-06-20T06:59:40.089Z,31.48
2019-06-20T07:04:42.801Z,31.40
2019-06-20T07:09:45.532Z,30.62
2019-06-20T07:14:48.547Z,28.38
2019-06-20T07:19:51.201Z,25.95
2019-06-20T07:24:53.879Z,28.23
2019-06-20T07:29:56.629Z,21.95
2019-06-20T07:34:59.633Z,21.68
2019-06-20T07:40:04.369Z,20.90
2019-06-20T07:45:09.071Z,23.18
2019-06-20T07:50:13.873Z,24.20
2019-06-20T07:55:16.768Z,23.80
2019-06-20T08:00:20.079Z,23.00
2019-06-20T08:05:22.953Z,23.45
2019-06-20T08:10:25.766Z,23.18
2019-06-20T08:15:28.553Z,25.90
2019-06-20T08:20:31.362Z,23.30
2019-06-20T08:25:34.365Z,16.05
2019-06-20T08:30:37.337Z,17.90
2019-06-20T08:35:40.000Z,17.90
2019-06-20T08:40:42.734Z,17.30
2019-06-20T08:45:45.529Z,18.73
2019-06-20T08:50:48.262Z,17.50
2019-06-20T08:55:51.054Z,19.57
2019-06-20T09:00:55.476Z,19.25
2019-06-20T09:05:58.382Z,16.77
2019-06-20T09:11:01.770Z,14.75
2019-06-20T09:16:24.778Z,11.25
2019-06-20T09:21:27.729Z,14.07
2019-06-20T09:26:30.392Z,12.00
2019-06-20T09:31:33.113Z,10.03
2019-06-20T09:36:35.850Z,10.80
2019-06-20T09:41:38.595Z,8.68
2019-06-20T09:46:41.385Z,10.72
2019-06-20T09:51:44.419Z,15.23
2019-06-20T09:56:49.913Z,11.08
2019-06-20T10:01:53.422Z,13.78
2019-06-20T10:06:56.670Z,11.10
2019-06-20T10:11:59.485Z,10.48
2019-06-20T10:17:02.191Z,11.45
2019-06-20T10:22:05.002Z,11.30
2019-06-20T10:27:07.736Z,12.18
2019-06-20T10:32:10.435Z,9.13
2019-06-20T10:37:13.213Z,11.50
2019-06-20T10:42:15.951Z,6.08
2019-06-20T10:47:31.698Z,8.43
2019-06-20T10:52:23.441Z,11.10
2019-06-20T10:57:26.855Z,6.85
2019-06-20T11:02:29.510Z,6.10
2019-06-20T11:07:32.554Z,5.78
2019-06-20T11:12:45.705Z,6.78
2019-06-20T11:17:40.321Z,5.65
2019-06-20T11:22:43.294Z,5.30
2019-06-20T11:27:47.309Z,3.30
2019-06-20T11:32:50.106Z,5.35
2019-06-20T11:37:52.844Z,7.17
2019-06-20T11:42:55.571Z,8.20
2019-06-20T11:47:58.226Z,7.90
2019-06-20T11:53:00.877Z,8.18
2019-06-20T11:58:03.661Z,5.85
2019-06-20T12:03:06.408Z,7.00
2019-06-20T12:08:09.140Z,5.60
2019-06-20T12:13:11.798Z,4.95
2019-06-20T12:18:14.463Z,4.50
2019-06-20T12:23:17.627Z,7.67
2019-06-20T12:28:20.301Z,4.55
2019-06-20T12:33:22.953Z,4.67
2019-06-20T12:38:25.704Z,5.83
2019-06-20T12:43:28.357Z,4.80
2019-06-20T12:48:31.009Z,2.33
2019-06-20T12:53:33.660Z,2.75
2019-06-20T12:58:37.326Z,3.77
2019-06-20T13:03:40.721Z,4.90
2019-06-20T13:08:43.643Z,4.40
2019-06-20T13:13:47.049Z,3.45
2019-06-20T13:18:50.452Z,5.20
2019-06-20T13:23:53.268Z,8.10
2019-06-20T13:29:03.736Z,5.72
2019-06-20T13:34:00.794Z,4.05
2019-06-20T13:39:06.198Z,4.17
2019-06-20T13:44:09.287Z,6.03
2019-06-20T13:49:12.030Z,5.85
2019-06-20T13:54:14.834Z,4.85
2019-06-20T13:59:17.595Z,4.53
2019-06-20T14:04:20.389Z,4.70
2019-06-20T14:09:23.116Z,5.90
2019-06-20T14:14:25.766Z,6.60
2019-06-20T14:19:28.420Z,7.35
2019-06-20T14:24:31.157Z,4.72
2019-06-20T14:29:33.892Z,6.60
2019-06-20T14:34:36.681Z,8.45
2019-06-20T14:39:39.669Z,7.30
2019-06-20T14:44:44.084Z,5.03
2019-06-20T14:49:48.291Z,5.62
2019-06-20T14:54:51.788Z,6.97
2019-06-20T14:59:54.592Z,8.40
2019-06-20T15:04:57.345Z,8.50
2019-06-20T15:10:00.019Z,7.72
2019-06-20T15:15:04.313Z,7.33
2019-06-20T15:20:07.483Z,7.87
2019-06-20T15:25:11.116Z,8.60
2019-06-20T15:30:14.217Z,13.38
2019-06-20T15:35:17.193Z,9.95
2019-06-20T15:40:19.982Z,8.88
2019-06-20T15:45:22.782Z,10.08
2019-06-20T15:50:25.518Z,9.75
2019-06-20T15:55:28.265Z,8.30
2019-06-20T16:00:32.259Z,7.58
2019-06-20T16:05:35.002Z,7.87
2019-06-20T16:10:37.672Z,6.65
2019-06-20T16:15:40.345Z,8.83
2019-06-20T16:20:43.079Z,5.15
2019-06-20T16:25:45.812Z,5.35
2019-06-20T16:30:48.481Z,10.03
2019-06-20T16:35:51.153Z,6.12
2019-06-20T16:40:54.322Z,4.30
2019-06-20T16:45:57.131Z,6.97
2019-06-20T16:50:59.798Z,7.80
2019-06-20T16:56:02.966Z,4.67
2019-06-20T17:01:05.765Z,3.58
2019-06-20T17:06:08.429Z,4.40
2019-06-20T17:11:11.174Z,3.83
2019-06-20T17:16:13.817Z,6.33
2019-06-20T17:21:16.570Z,3.45
2019-06-20T17:26:19.277Z,6.00
2019-06-20T17:31:22.045Z,4.03
2019-06-20T17:36:25.060Z,5.25
2019-06-20T17:41:27.825Z,2.20
2019-06-20T17:46:30.613Z,4.00
2019-06-20T17:51:33.307Z,4.37
2019-06-20T17:56:35.963Z,4.95
2019-06-20T18:01:38.710Z,4.75
2019-06-20T18:06:41.490Z,3.05
2019-06-20T18:11:44.233Z,3.12
2019-06-20T18:16:46.993Z,2.65
2019-06-20T18:21:49.813Z,1.57
2019-06-20T18:26:52.569Z,2.95
2019-06-20T18:31:55.369Z,2.92
2019-06-20T18:36:58.091Z,3.98
2019-06-20T18:42:00.837Z,6.60
2019-06-20T18:47:03.650Z,3.42
2019-06-20T18:52:07.259Z,5.37
2019-06-20T18:57:10.339Z,3.37
2019-06-20T19:02:13.151Z,4.22
2019-06-20T19:07:15.821Z,3.00
2019-06-20T19:12:18.955Z,2.55
2019-06-20T19:17:21.695Z,4.67
2019-06-20T19:22:24.439Z,3.55
2019-06-20T19:27:27.117Z,4.58
2019-06-20T19:32:29.776Z,5.05
2019-06-20T19:37:32.437Z,3.25
2019-06-20T19:42:35.109Z,3.08
2019-06-20T19:47:38.147Z,4.83
2019-06-20T19:52:41.019Z,8.73
2019-06-20T19:57:43.735Z,2.40
2019-06-20T20:02:46.394Z,4.25
2019-06-20T20:07:49.105Z,5.62
2019-06-20T20:12:51.912Z,3.60
2019-06-20T20:17:54.640Z,6.22
2019-06-20T20:22:57.455Z,2.60
2019-06-20T20:28:00.174Z,6.62
2019-06-20T20:33:03.088Z,5.90
2019-06-20T20:38:05.964Z,4.55
2019-06-20T20:43:08.759Z,7.30
2019-06-20T20:48:11.421Z,2.95
2019-06-20T20:53:14.145Z,7.03
2019-06-20T20:58:16.801Z,2.47
2019-06-20T21:03:19.476Z,6.03
2019-06-20T21:08:22.194Z,4.65
2019-06-20T21:13:24.946Z,5.62
2019-06-20T21:18:27.612Z,4.55
2019-06-20T21:23:30.412Z,4.53
2019-06-20T21:28:33.088Z,3.42
2019-06-20T21:33:35.812Z,3.22
2019-06-20T21:38:38.471Z,4.60
2019-06-20T21:43:41.135Z,5.15
2019-06-20T21:48:43.866Z,3.30
2019-06-20T21:53:46.530Z,5.28
2019-06-20T21:58:49.267Z,4.55
2019-06-20T22:03:51.941Z,5.03
2019-06-20T22:08:54.597Z,5.60
2019-06-20T22:13:57.323Z,3.25
2019-06-20T22:19:00.077Z,5.75
2019-06-20T22:24:02.748Z,6.03
2019-06-20T22:29:05.619Z,7.67
2019-06-20T22:34:08.351Z,7.12
2019-06-20T22:39:11.011Z,6.80
2019-06-20T22:44:13.663Z,5.97
2019-06-20T22:49:16.328Z,8.15
2019-06-20T22:54:18.996Z,5.08
2019-06-20T22:59:21.650Z,4.80
2019-06-20T23:04:24.301Z,4.87
2019-06-20T23:09:27.521Z,4.53
2019-06-20T23:14:30.442Z,8.38
2019-06-20T23:19:33.120Z,4.95
2019-06-20T23:24:35.857Z,5.03
2019-06-20T23:29:38.584Z,6.83
2019-06-20T23:34:41.242Z,6.87
2019-06-20T23:39:43.989Z,5.55
2019-06-20T23:44:46.729Z,6.28
2019-06-20T23:49:49.460Z,5.47
2019-06-20T23:54:52.182Z,6.03
2019-06-20T23:59:54.833Z,4.85
